sensor_id;sensor_type;location;lat;lon;timestamp;temperature;humidity
13982;DHT22;7065;50.880;5.502;2023-09-19T00:00:34;15.20;99.90
13982;DHT22;7065;50.880;5.502;2023-09-19T00:03:01;15.20;99.90
13982;DHT22;7065;50.880;5.502;2023-09-19T00:05:27;15.20;99.90
13982;DHT22;7065;50.880;5.502;2023-09-19T00:07:55;15.20;99.90
13982;DHT22;7065;50.880;5.502;2023-09-19T00:10:22;15.10;99.90
13982;DHT22;7065;50.880;5.502;2023-09-19T00:12:50;15.10;99.90
13982;DHT22;7065;50.880;5.502;2023-09-19T00:15:17;15.00;99.90
13982;DHT22;7065;50.880;5.502;2023-09-19T00:17:43;15.00;99.90
13982;DHT22;7065;50.880;5.502;2023-09-19T00:20:09;15.00;99.90
13982;DHT22;7065;50.880;5.502;2023-09-19T00:22:41;15.00;99.90
13982;DHT22;7065;50.880;5.502;2023-09-19T00:25:11;15.00;99.90
13982;DHT22;7065;50.880;5.502;2023-09-19T00:27:40;15.00;99.90
13982;DHT22;7065;50.880;5.502;2023-09-19T00:30:09;15.00;99.90
13982;DHT22;7065;50.880;5.502;2023-09-19T00:32:40;14.90;99.90
13982;DHT22;7065;50.880;5.502;2023-09-19T00:35:06;15.00;99.90
13982;DHT22;7065;50.880;5.502;2023-09-19T00:37:34;15.00;99.90
13982;DHT22;7065;50.880;5.502;2023-09-19T00:40:02;14.90;99.90
13982;DHT22;7065;50.880;5.502;2023-09-19T00:42:28;14.90;99.90
13982;DHT22;7065;50.880;5.502;2023-09-19T00:44:54;15.00;99.90
13982;DHT22;7065;50.880;5.502;2023-09-19T00:47:19;14.90;99.90
13982;DHT22;7065;50.880;5.502;2023-09-19T00:49:45;14.90;99.90
13982;DHT22;7065;50.880;5.502;2023-09-19T00:52:15;14.90;99.90
13982;DHT22;7065;50.880;5.502;2023-09-19T00:54:41;14.90;99.90
13982;DHT22;7065;50.880;5.502;2023-09-19T00:57:07;15.00;99.90
13982;DHT22;7065;50.880;5.502;2023-09-19T00:59:35;15.00;99.90
13982;DHT22;7065;50.880;5.502;2023-09-19T01:02:02;15.00;99.90
13982;DHT22;7065;50.880;5.502;2023-09-19T01:04:28;15.00;99.90
13982;DHT22;7065;50.880;5.502;2023-09-19T01:06:54;15.00;99.90
13982;DHT22;7065;50.880;5.502;2023-09-19T01:09:21;15.00;99.90
13982;DHT22;7065;50.880;5.502;2023-09-19T01:11:48;15.00;99.90
13982;DHT22;7065;50.880;5.502;2023-09-19T01:14:56;15.00;99.90
13982;DHT22;7065;50.880;5.502;2023-09-19T01:17:38;15.00;99.90
13982;DHT22;7065;50.880;5.502;2023-09-19T01:22:46;15.00;99.90
13982;DHT22;7065;50.880;5.502;2023-09-19T01:31:09;15.00;99.90
13982;DHT22;7065;50.880;5.502;2023-09-19T01:36:22;14.90;99.90
13982;DHT22;7065;50.880;5.502;2023-09-19T01:38:50;14.90;99.90
13982;DHT22;7065;50.880;5.502;2023-09-19T01:41:26;14.90;99.90
13982;DHT22;7065;50.880;5.502;2023-09-19T01:43:52;14.90;99.90
13982;DHT22;7065;50.880;5.502;2023-09-19T01:46:25;14.90;99.90
13982;DHT22;7065;50.880;5.502;2023-09-19T01:52:12;14.80;99.90
13982;DHT22;7065;50.880;5.502;2023-09-19T01:54:50;14.70;99.90
13982;DHT22;7065;50.880;5.502;2023-09-19T01:57:34;14.70;99.90
13982;DHT22;7065;50.880;5.502;2023-09-19T02:00:06;14.70;99.90
13982;DHT22;7065;50.880;5.502;2023-09-19T02:02:39;14.70;99.90
13982;DHT22;7065;50.880;5.502;2023-09-19T02:05:06;14.60;99.90
13982;DHT22;7065;50.880;5.502;2023-09-19T02:07:32;14.60;99.90
13982;DHT22;7065;50.880;5.502;2023-09-19T02:09:58;14.60;99.90
13982;DHT22;7065;50.880;5.502;2023-09-19T02:12:30;14.50;99.90
13982;DHT22;7065;50.880;5.502;2023-09-19T02:14:56;14.50;99.90
13982;DHT22;7065;50.880;5.502;2023-09-19T02:17:23;14.50;99.90
13982;DHT22;7065;50.880;5.502;2023-09-19T02:19:52;14.50;99.90
13982;DHT22;7065;50.880;5.502;2023-09-19T02:22:19;14.50;99.90
13982;DHT22;7065;50.880;5.502;2023-09-19T02:24:44;14.40;99.90
13982;DHT22;7065;50.880;5.502;2023-09-19T02:27:13;14.40;99.90
13982;DHT22;7065;50.880;5.502;2023-09-19T02:29:41;14.40;99.90
13982;DHT22;7065;50.880;5.502;2023-09-19T02:32:07;14.40;99.90
13982;DHT22;7065;50.880;5.502;2023-09-19T02:34:35;14.40;99.90
13982;DHT22;7065;50.880;5.502;2023-09-19T02:37:05;14.30;99.90
13982;DHT22;7065;50.880;5.502;2023-09-19T02:39:32;14.30;99.90
13982;DHT22;7065;50.880;5.502;2023-09-19T02:41:57;14.30;99.90
13982;DHT22;7065;50.880;5.502;2023-09-19T02:44:23;14.30;99.90
13982;DHT22;7065;50.880;5.502;2023-09-19T02:46:50;14.30;99.90
13982;DHT22;7065;50.880;5.502;2023-09-19T02:49:16;14.30;99.90
13982;DHT22;7065;50.880;5.502;2023-09-19T02:51:43;14.30;99.90
13982;DHT22;7065;50.880;5.502;2023-09-19T02:54:09;14.30;99.90
13982;DHT22;7065;50.880;5.502;2023-09-19T02:56:35;14.30;99.90
13982;DHT22;7065;50.880;5.502;2023-09-19T02:59:01;14.20;99.90
13982;DHT22;7065;50.880;5.502;2023-09-19T03:01:27;14.20;99.90
13982;DHT22;7065;50.880;5.502;2023-09-19T03:03:54;14.20;99.90
13982;DHT22;7065;50.880;5.502;2023-09-19T03:06:20;14.20;99.90
13982;DHT22;7065;50.880;5.502;2023-09-19T03:08:47;14.20;99.90
13982;DHT22;7065;50.880;5.502;2023-09-19T03:11:15;14.20;99.90
13982;DHT22;7065;50.880;5.502;2023-09-19T03:13:41;14.20;99.90
13982;DHT22;7065;50.880;5.502;2023-09-19T03:16:08;14.10;99.90
13982;DHT22;7065;50.880;5.502;2023-09-19T03:18:34;14.10;99.90
13982;DHT22;7065;50.880;5.502;2023-09-19T03:21:00;14.10;99.90
13982;DHT22;7065;50.880;5.502;2023-09-19T03:23:28;14.10;99.90
13982;DHT22;7065;50.880;5.502;2023-09-19T03:25:54;14.10;99.90
13982;DHT22;7065;50.880;5.502;2023-09-19T03:28:24;14.10;99.90
13982;DHT22;7065;50.880;5.502;2023-09-19T03:31:02;14.10;99.90
13982;DHT22;7065;50.880;5.502;2023-09-19T03:33:28;14.10;99.90
13982;DHT22;7065;50.880;5.502;2023-09-19T03:35:54;14.10;99.90
13982;DHT22;7065;50.880;5.502;2023-09-19T03:38:20;14.00;99.90
13982;DHT22;7065;50.880;5.502;2023-09-19T03:40:47;14.10;99.90
13982;DHT22;7065;50.880;5.502;2023-09-19T03:43:14;14.10;99.90
13982;DHT22;7065;50.880;5.502;2023-09-19T03:45:40;14.00;99.90
13982;DHT22;7065;50.880;5.502;2023-09-19T03:48:10;14.00;99.90
13982;DHT22;7065;50.880;5.502;2023-09-19T03:50:36;14.00;99.90
13982;DHT22;7065;50.880;5.502;2023-09-19T03:53:03;14.00;99.90
13982;DHT22;7065;50.880;5.502;2023-09-19T03:55:29;14.00;99.90
13982;DHT22;7065;50.880;5.502;2023-09-19T03:57:58;14.00;99.90
13982;DHT22;7065;50.880;5.502;2023-09-19T04:00:23;14.10;99.90
13982;DHT22;7065;50.880;5.502;2023-09-19T04:02:52;14.10;99.90
13982;DHT22;7065;50.880;5.502;2023-09-19T04:05:18;14.20;99.90
13982;DHT22;7065;50.880;5.502;2023-09-19T04:07:44;14.20;99.90
13982;DHT22;7065;50.880;5.502;2023-09-19T04:10:10;14.20;99.90
13982;DHT22;7065;50.880;5.502;2023-09-19T04:12:40;14.20;99.90
13982;DHT22;7065;50.880;5.502;2023-09-19T04:15:06;14.20;99.90
13982;DHT22;7065;50.880;5.502;2023-09-19T04:17:32;14.20;99.90
13982;DHT22;7065;50.880;5.502;2023-09-19T04:20:01;14.30;99.90
13982;DHT22;7065;50.880;5.502;2023-09-19T04:22:26;14.30;99.90
13982;DHT22;7065;50.880;5.502;2023-09-19T04:24:52;14.30;99.90
13982;DHT22;7065;50.880;5.502;2023-09-19T04:27:18;14.30;99.90
13982;DHT22;7065;50.880;5.502;2023-09-19T04:29:44;14.30;99.90
13982;DHT22;7065;50.880;5.502;2023-09-19T04:32:10;14.30;99.90
13982;DHT22;7065;50.880;5.502;2023-09-19T04:34:38;14.30;99.90
13982;DHT22;7065;50.880;5.502;2023-09-19T04:37:04;14.30;99.90
13982;DHT22;7065;50.880;5.502;2023-09-19T04:39:30;14.30;99.90
13982;DHT22;7065;50.880;5.502;2023-09-19T04:41:55;14.30;99.90
13982;DHT22;7065;50.880;5.502;2023-09-19T04:44:22;14.30;99.90
13982;DHT22;7065;50.880;5.502;2023-09-19T04:46:48;14.20;99.90
13982;DHT22;7065;50.880;5.502;2023-09-19T04:49:13;14.20;99.90
13982;DHT22;7065;50.880;5.502;2023-09-19T04:51:39;14.20;99.90
13982;DHT22;7065;50.880;5.502;2023-09-19T04:54:05;14.20;99.90
13982;DHT22;7065;50.880;5.502;2023-09-19T04:56:32;14.20;99.90
13982;DHT22;7065;50.880;5.502;2023-09-19T04:58:58;14.10;99.90
13982;DHT22;7065;50.880;5.502;2023-09-19T05:01:27;14.10;99.90
13982;DHT22;7065;50.880;5.502;2023-09-19T05:03:53;14.00;99.90
13982;DHT22;7065;50.880;5.502;2023-09-19T05:06:19;14.00;99.90
13982;DHT22;7065;50.880;5.502;2023-09-19T05:08:49;14.00;99.90
13982;DHT22;7065;50.880;5.502;2023-09-19T05:11:19;13.90;99.90
13982;DHT22;7065;50.880;5.502;2023-09-19T05:13:46;13.90;99.90
13982;DHT22;7065;50.880;5.502;2023-09-19T05:16:11;13.90;99.90
13982;DHT22;7065;50.880;5.502;2023-09-19T05:18:37;13.80;99.90
13982;DHT22;7065;50.880;5.502;2023-09-19T05:21:03;13.80;99.90
13982;DHT22;7065;50.880;5.502;2023-09-19T05:23:29;13.80;99.90
13982;DHT22;7065;50.880;5.502;2023-09-19T05:25:56;13.80;99.90
13982;DHT22;7065;50.880;5.502;2023-09-19T05:28:24;13.80;99.90
13982;DHT22;7065;50.880;5.502;2023-09-19T05:30:49;13.80;99.90
13982;DHT22;7065;50.880;5.502;2023-09-19T05:33:15;13.80;99.90
13982;DHT22;7065;50.880;5.502;2023-09-19T05:35:41;13.80;99.90
13982;DHT22;7065;50.880;5.502;2023-09-19T05:38:07;13.80;99.90
13982;DHT22;7065;50.880;5.502;2023-09-19T05:40:39;13.80;99.90
13982;DHT22;7065;50.880;5.502;2023-09-19T05:43:08;13.70;99.90
13982;DHT22;7065;50.880;5.502;2023-09-19T05:45:34;13.70;99.90
13982;DHT22;7065;50.880;5.502;2023-09-19T05:48:11;13.80;99.90
13982;DHT22;7065;50.880;5.502;2023-09-19T05:50:40;13.80;99.90
13982;DHT22;7065;50.880;5.502;2023-09-19T05:53:06;13.80;99.90
13982;DHT22;7065;50.880;5.502;2023-09-19T05:55:33;13.80;99.90
13982;DHT22;7065;50.880;5.502;2023-09-19T05:57:58;13.80;99.90
13982;DHT22;7065;50.880;5.502;2023-09-19T06:00:25;13.80;99.90
13982;DHT22;7065;50.880;5.502;2023-09-19T06:02:57;13.80;99.90
13982;DHT22;7065;50.880;5.502;2023-09-19T06:05:24;13.90;99.90
13982;DHT22;7065;50.880;5.502;2023-09-19T06:07:50;13.90;99.90
13982;DHT22;7065;50.880;5.502;2023-09-19T06:10:16;13.90;99.90
13982;DHT22;7065;50.880;5.502;2023-09-19T06:12:43;13.90;99.90
13982;DHT22;7065;50.880;5.502;2023-09-19T06:15:13;13.90;99.90
13982;DHT22;7065;50.880;5.502;2023-09-19T06:17:48;13.90;99.90
13982;DHT22;7065;50.880;5.502;2023-09-19T06:20:15;14.00;99.90
13982;DHT22;7065;50.880;5.502;2023-09-19T06:22:45;14.00;99.90
13982;DHT22;7065;50.880;5.502;2023-09-19T06:25:12;14.00;99.90
13982;DHT22;7065;50.880;5.502;2023-09-19T06:27:41;14.10;99.90
13982;DHT22;7065;50.880;5.502;2023-09-19T06:30:09;14.10;99.90
13982;DHT22;7065;50.880;5.502;2023-09-19T06:32:37;14.00;99.90
13982;DHT22;7065;50.880;5.502;2023-09-19T06:35:02;14.10;99.90
13982;DHT22;7065;50.880;5.502;2023-09-19T06:37:29;14.10;99.90
13982;DHT22;7065;50.880;5.502;2023-09-19T06:39:55;14.20;99.90
13982;DHT22;7065;50.880;5.502;2023-09-19T06:42:21;14.20;99.90
13982;DHT22;7065;50.880;5.502;2023-09-19T06:44:48;14.20;99.90
13982;DHT22;7065;50.880;5.502;2023-09-19T06:47:14;14.30;99.90
13982;DHT22;7065;50.880;5.502;2023-09-19T06:49:41;14.30;99.90
13982;DHT22;7065;50.880;5.502;2023-09-19T06:52:09;14.30;99.90
13982;DHT22;7065;50.880;5.502;2023-09-19T06:54:35;14.30;99.90
13982;DHT22;7065;50.880;5.502;2023-09-19T06:57:01;14.40;99.90
13982;DHT22;7065;50.880;5.502;2023-09-19T06:59:27;14.40;99.90
13982;DHT22;7065;50.880;5.502;2023-09-19T07:01:53;14.40;99.90
13982;DHT22;7065;50.880;5.502;2023-09-19T07:04:19;14.50;99.90
13982;DHT22;7065;50.880;5.502;2023-09-19T07:06:49;14.50;99.90
13982;DHT22;7065;50.880;5.502;2023-09-19T07:09:15;14.60;99.90
13982;DHT22;7065;50.880;5.502;2023-09-19T07:11:41;14.60;99.90
13982;DHT22;7065;50.880;5.502;2023-09-19T07:14:08;14.70;99.90
13982;DHT22;7065;50.880;5.502;2023-09-19T07:16:37;14.70;99.90
13982;DHT22;7065;50.880;5.502;2023-09-19T07:19:04;14.80;99.90
13982;DHT22;7065;50.880;5.502;2023-09-19T07:21:30;14.90;99.90
13982;DHT22;7065;50.880;5.502;2023-09-19T07:23:59;14.90;99.90
13982;DHT22;7065;50.880;5.502;2023-09-19T07:26:26;14.90;99.90
13982;DHT22;7065;50.880;5.502;2023-09-19T07:28:53;15.00;99.90
13982;DHT22;7065;50.880;5.502;2023-09-19T07:31:19;15.00;99.90
13982;DHT22;7065;50.880;5.502;2023-09-19T07:33:45;15.00;99.90
13982;DHT22;7065;50.880;5.502;2023-09-19T07:36:11;15.00;99.90
13982;DHT22;7065;50.880;5.502;2023-09-19T07:38:39;15.10;99.90
13982;DHT22;7065;50.880;5.502;2023-09-19T07:41:06;15.10;99.90
13982;DHT22;7065;50.880;5.502;2023-09-19T07:43:32;15.10;99.90
13982;DHT22;7065;50.880;5.502;2023-09-19T07:46:05;15.20;99.90
13982;DHT22;7065;50.880;5.502;2023-09-19T07:48:37;15.30;99.90
13982;DHT22;7065;50.880;5.502;2023-09-19T07:51:08;15.30;99.90
13982;DHT22;7065;50.880;5.502;2023-09-19T07:53:35;15.30;99.90
13982;DHT22;7065;50.880;5.502;2023-09-19T07:56:09;15.30;99.90
13982;DHT22;7065;50.880;5.502;2023-09-19T07:58:35;15.40;99.90
13982;DHT22;7065;50.880;5.502;2023-09-19T08:01:07;15.40;99.90
13982;DHT22;7065;50.880;5.502;2023-09-19T08:03:33;15.50;99.90
13982;DHT22;7065;50.880;5.502;2023-09-19T08:06:00;15.50;99.90
13982;DHT22;7065;50.880;5.502;2023-09-19T08:08:27;15.50;99.90
13982;DHT22;7065;50.880;5.502;2023-09-19T08:10:54;15.60;99.90
13982;DHT22;7065;50.880;5.502;2023-09-19T08:13:25;15.60;99.90
13982;DHT22;7065;50.880;5.502;2023-09-19T08:15:51;15.70;99.90
13982;DHT22;7065;50.880;5.502;2023-09-19T08:18:20;15.80;99.90
13982;DHT22;7065;50.880;5.502;2023-09-19T08:20:52;15.80;99.90
13982;DHT22;7065;50.880;5.502;2023-09-19T08:23:18;15.80;99.90
13982;DHT22;7065;50.880;5.502;2023-09-19T08:25:46;15.80;99.90
13982;DHT22;7065;50.880;5.502;2023-09-19T08:28:11;15.80;99.90
13982;DHT22;7065;50.880;5.502;2023-09-19T08:30:39;15.90;99.90
13982;DHT22;7065;50.880;5.502;2023-09-19T08:33:06;15.90;99.90
13982;DHT22;7065;50.880;5.502;2023-09-19T08:35:33;15.90;99.90
13982;DHT22;7065;50.880;5.502;2023-09-19T08:37:59;16.00;99.90
13982;DHT22;7065;50.880;5.502;2023-09-19T08:40:30;16.10;99.90
13982;DHT22;7065;50.880;5.502;2023-09-19T08:42:59;16.10;99.90
13982;DHT22;7065;50.880;5.502;2023-09-19T08:45:26;16.20;99.90
13982;DHT22;7065;50.880;5.502;2023-09-19T08:53:54;16.40;99.90
13982;DHT22;7065;50.880;5.502;2023-09-19T08:56:25;16.40;99.90
13982;DHT22;7065;50.880;5.502;2023-09-19T08:58:57;16.40;99.90
13982;DHT22;7065;50.880;5.502;2023-09-19T09:01:29;16.40;99.90
13982;DHT22;7065;50.880;5.502;2023-09-19T09:03:58;16.40;99.90
13982;DHT22;7065;50.880;5.502;2023-09-19T09:06:25;16.40;99.90
13982;DHT22;7065;50.880;5.502;2023-09-19T09:08:51;16.40;99.90
13982;DHT22;7065;50.880;5.502;2023-09-19T09:11:20;16.50;99.90
13982;DHT22;7065;50.880;5.502;2023-09-19T09:13:47;16.50;99.90
13982;DHT22;7065;50.880;5.502;2023-09-19T09:16:14;16.60;99.90
13982;DHT22;7065;50.880;5.502;2023-09-19T09:18:44;16.70;99.90
13982;DHT22;7065;50.880;5.502;2023-09-19T09:21:11;16.70;99.90
13982;DHT22;7065;50.880;5.502;2023-09-19T09:23:37;16.80;99.90
13982;DHT22;7065;50.880;5.502;2023-09-19T09:26:03;16.70;99.90
13982;DHT22;7065;50.880;5.502;2023-09-19T09:28:32;16.80;99.90
13982;DHT22;7065;50.880;5.502;2023-09-19T09:30:59;16.80;99.90
13982;DHT22;7065;50.880;5.502;2023-09-19T09:33:28;16.80;99.90
13982;DHT22;7065;50.880;5.502;2023-09-19T09:35:56;16.90;99.90
13982;DHT22;7065;50.880;5.502;2023-09-19T09:38:43;17.00;99.90
13982;DHT22;7065;50.880;5.502;2023-09-19T09:41:10;17.00;99.90
13982;DHT22;7065;50.880;5.502;2023-09-19T09:43:41;17.10;99.90
13982;DHT22;7065;50.880;5.502;2023-09-19T09:46:17;17.20;99.90
13982;DHT22;7065;50.880;5.502;2023-09-19T09:49:07;17.20;99.90
13982;DHT22;7065;50.880;5.502;2023-09-19T09:51:42;17.30;99.90
13982;DHT22;7065;50.880;5.502;2023-09-19T09:54:13;17.30;99.90
13982;DHT22;7065;50.880;5.502;2023-09-19T09:56:57;17.40;99.90
13982;DHT22;7065;50.880;5.502;2023-09-19T09:59:55;17.40;99.90
13982;DHT22;7065;50.880;5.502;2023-09-19T10:02:30;17.40;99.90
13982;DHT22;7065;50.880;5.502;2023-09-19T10:05:18;17.40;99.90
13982;DHT22;7065;50.880;5.502;2023-09-19T10:07:54;17.50;99.90
13982;DHT22;7065;50.880;5.502;2023-09-19T10:10:36;17.50;99.90
13982;DHT22;7065;50.880;5.502;2023-09-19T10:13:14;17.60;99.90
13982;DHT22;7065;50.880;5.502;2023-09-19T10:15:46;17.60;99.90
13982;DHT22;7065;50.880;5.502;2023-09-19T10:18:26;17.60;99.90
13982;DHT22;7065;50.880;5.502;2023-09-19T10:20:54;17.70;99.90
13982;DHT22;7065;50.880;5.502;2023-09-19T10:23:21;17.60;99.90
13982;DHT22;7065;50.880;5.502;2023-09-19T10:25:52;17.60;99.90
13982;DHT22;7065;50.880;5.502;2023-09-19T10:28:18;17.60;99.90
13982;DHT22;7065;50.880;5.502;2023-09-19T10:30:49;17.50;99.90
13982;DHT22;7065;50.880;5.502;2023-09-19T10:33:20;17.50;99.90
13982;DHT22;7065;50.880;5.502;2023-09-19T10:35:48;17.50;99.90
13982;DHT22;7065;50.880;5.502;2023-09-19T10:38:18;17.50;99.90
13982;DHT22;7065;50.880;5.502;2023-09-19T10:40:52;17.50;99.90
13982;DHT22;7065;50.880;5.502;2023-09-19T10:43:19;17.50;99.90
13982;DHT22;7065;50.880;5.502;2023-09-19T10:45:48;17.50;99.90
13982;DHT22;7065;50.880;5.502;2023-09-19T10:48:18;17.50;99.90
13982;DHT22;7065;50.880;5.502;2023-09-19T10:53:48;17.50;99.90
13982;DHT22;7065;50.880;5.502;2023-09-19T10:56:36;17.60;99.90
13982;DHT22;7065;50.880;5.502;2023-09-19T10:59:14;17.60;99.90
13982;DHT22;7065;50.880;5.502;2023-09-19T11:01:55;17.70;99.90
13982;DHT22;7065;50.880;5.502;2023-09-19T11:04:33;17.80;99.90
13982;DHT22;7065;50.880;5.502;2023-09-19T11:14:59;18.20;99.90
13982;DHT22;7065;50.880;5.502;2023-09-19T11:17:32;18.30;99.90
13982;DHT22;7065;50.880;5.502;2023-09-19T11:30:38;18.30;99.90
13982;DHT22;7065;50.880;5.502;2023-09-19T11:33:26;18.40;99.90
13982;DHT22;7065;50.880;5.502;2023-09-19T11:36:12;18.40;99.90
13982;DHT22;7065;50.880;5.502;2023-09-19T11:43:48;18.40;99.90
13982;DHT22;7065;50.880;5.502;2023-09-19T11:46:16;18.50;99.90
13982;DHT22;7065;50.880;5.502;2023-09-19T11:48:48;18.60;99.90
13982;DHT22;7065;50.880;5.502;2023-09-19T11:51:25;18.70;99.90
13982;DHT22;7065;50.880;5.502;2023-09-19T11:53:58;18.80;99.90
13982;DHT22;7065;50.880;5.502;2023-09-19T11:56:28;18.80;99.90
13982;DHT22;7065;50.880;5.502;2023-09-19T11:58:55;18.80;99.90
13982;DHT22;7065;50.880;5.502;2023-09-19T12:01:29;18.80;99.90
13982;DHT22;7065;50.880;5.502;2023-09-19T12:03:57;19.00;99.90
13982;DHT22;7065;50.880;5.502;2023-09-19T12:06:27;19.10;99.90
13982;DHT22;7065;50.880;5.502;2023-09-19T12:08:55;19.20;99.90
13982;DHT22;7065;50.880;5.502;2023-09-19T12:11:23;19.30;99.90
13982;DHT22;7065;50.880;5.502;2023-09-19T12:13:50;19.40;99.90
13982;DHT22;7065;50.880;5.502;2023-09-19T12:16:19;19.30;99.90
13982;DHT22;7065;50.880;5.502;2023-09-19T12:18:50;19.40;99.90
13982;DHT22;7065;50.880;5.502;2023-09-19T12:21:29;19.30;99.90
13982;DHT22;7065;50.880;5.502;2023-09-19T12:26:27;19.40;99.90
13982;DHT22;7065;50.880;5.502;2023-09-19T12:28:55;19.50;99.90
13982;DHT22;7065;50.880;5.502;2023-09-19T12:31:21;19.70;99.90
13982;DHT22;7065;50.880;5.502;2023-09-19T12:33:53;19.80;99.90
13982;DHT22;7065;50.880;5.502;2023-09-19T12:36:21;19.80;99.90
13982;DHT22;7065;50.880;5.502;2023-09-19T12:38:57;19.60;99.90
13982;DHT22;7065;50.880;5.502;2023-09-19T12:41:26;19.50;99.90
13982;DHT22;7065;50.880;5.502;2023-09-19T12:43:53;19.60;99.90
13982;DHT22;7065;50.880;5.502;2023-09-19T12:46:22;19.70;99.90
13982;DHT22;7065;50.880;5.502;2023-09-19T12:49:19;19.60;99.90
13982;DHT22;7065;50.880;5.502;2023-09-19T12:51:46;19.60;99.90
13982;DHT22;7065;50.880;5.502;2023-09-19T12:54:13;19.60;99.90
13982;DHT22;7065;50.880;5.502;2023-09-19T12:56:45;19.60;99.90
13982;DHT22;7065;50.880;5.502;2023-09-19T12:59:13;19.60;99.90
13982;DHT22;7065;50.880;5.502;2023-09-19T13:01:43;19.60;99.90
13982;DHT22;7065;50.880;5.502;2023-09-19T13:04:14;19.60;99.90
13982;DHT22;7065;50.880;5.502;2023-09-19T13:06:52;19.50;99.90
13982;DHT22;7065;50.880;5.502;2023-09-19T13:09:19;19.40;99.90
13982;DHT22;7065;50.880;5.502;2023-09-19T13:12:00;19.40;99.90
13982;DHT22;7065;50.880;5.502;2023-09-19T13:14:29;19.60;99.90
13982;DHT22;7065;50.880;5.502;2023-09-19T13:17:03;19.90;99.90
13982;DHT22;7065;50.880;5.502;2023-09-19T13:19:46;20.10;99.90
13982;DHT22;7065;50.880;5.502;2023-09-19T13:22:40;20.10;99.90
13982;DHT22;7065;50.880;5.502;2023-09-19T13:25:19;20.00;99.90
13982;DHT22;7065;50.880;5.502;2023-09-19T13:27:53;19.90;99.90
13982;DHT22;7065;50.880;5.502;2023-09-19T13:30:22;19.70;99.90
13982;DHT22;7065;50.880;5.502;2023-09-19T13:32:49;19.60;99.90
13982;DHT22;7065;50.880;5.502;2023-09-19T13:35:15;19.50;99.90
13982;DHT22;7065;50.880;5.502;2023-09-19T13:37:42;19.50;99.90
13982;DHT22;7065;50.880;5.502;2023-09-19T13:40:14;19.50;99.90
13982;DHT22;7065;50.880;5.502;2023-09-19T13:42:41;19.40;99.90
13982;DHT22;7065;50.880;5.502;2023-09-19T13:45:07;19.40;99.90
13982;DHT22;7065;50.880;5.502;2023-09-19T13:47:33;19.50;99.90
13982;DHT22;7065;50.880;5.502;2023-09-19T13:50:01;19.50;99.90
13982;DHT22;7065;50.880;5.502;2023-09-19T13:52:28;19.50;99.90
13982;DHT22;7065;50.880;5.502;2023-09-19T13:54:56;19.50;99.90
13982;DHT22;7065;50.880;5.502;2023-09-19T13:57:28;19.50;99.90
13982;DHT22;7065;50.880;5.502;2023-09-19T13:59:55;19.70;99.90
13982;DHT22;7065;50.880;5.502;2023-09-19T14:02:23;19.90;99.90
13982;DHT22;7065;50.880;5.502;2023-09-19T14:04:50;20.00;99.90
13982;DHT22;7065;50.880;5.502;2023-09-19T14:07:16;20.00;99.90
13982;DHT22;7065;50.880;5.502;2023-09-19T14:09:43;20.10;99.90
13982;DHT22;7065;50.880;5.502;2023-09-19T14:12:09;20.30;99.90
13982;DHT22;7065;50.880;5.502;2023-09-19T14:14:35;20.40;99.90
13982;DHT22;7065;50.880;5.502;2023-09-19T14:17:00;20.30;99.90
13982;DHT22;7065;50.880;5.502;2023-09-19T14:19:27;20.30;99.90
13982;DHT22;7065;50.880;5.502;2023-09-19T14:21:53;20.20;99.90
13982;DHT22;7065;50.880;5.502;2023-09-19T14:24:22;20.20;99.90
13982;DHT22;7065;50.880;5.502;2023-09-19T14:26:48;20.20;99.90
13982;DHT22;7065;50.880;5.502;2023-09-19T14:29:15;20.10;99.90
13982;DHT22;7065;50.880;5.502;2023-09-19T14:31:42;19.90;99.90
13982;DHT22;7065;50.880;5.502;2023-09-19T14:34:08;19.80;99.90
13982;DHT22;7065;50.880;5.502;2023-09-19T14:36:38;19.70;99.90
13982;DHT22;7065;50.880;5.502;2023-09-19T14:39:04;19.60;99.90
13982;DHT22;7065;50.880;5.502;2023-09-19T14:41:30;19.60;99.90
13982;DHT22;7065;50.880;5.502;2023-09-19T14:43:57;19.50;99.90
13982;DHT22;7065;50.880;5.502;2023-09-19T14:46:23;19.40;99.90
13982;DHT22;7065;50.880;5.502;2023-09-19T14:48:51;19.40;99.90
13982;DHT22;7065;50.880;5.502;2023-09-19T14:51:17;19.40;99.90
13982;DHT22;7065;50.880;5.502;2023-09-19T14:53:44;19.30;99.90
13982;DHT22;7065;50.880;5.502;2023-09-19T14:56:11;19.30;99.90
13982;DHT22;7065;50.880;5.502;2023-09-19T14:58:38;19.30;99.90
13982;DHT22;7065;50.880;5.502;2023-09-19T15:01:06;19.30;99.90
13982;DHT22;7065;50.880;5.502;2023-09-19T15:03:33;19.40;99.90
13982;DHT22;7065;50.880;5.502;2023-09-19T15:06:03;19.40;99.90
13982;DHT22;7065;50.880;5.502;2023-09-19T15:08:34;19.40;99.90
13982;DHT22;7065;50.880;5.502;2023-09-19T15:11:01;19.40;99.90
13982;DHT22;7065;50.880;5.502;2023-09-19T15:13:31;19.40;99.90
13982;DHT22;7065;50.880;5.502;2023-09-19T15:16:01;19.40;99.90
13982;DHT22;7065;50.880;5.502;2023-09-19T15:18:28;19.40;99.90
13982;DHT22;7065;50.880;5.502;2023-09-19T15:20:54;19.40;99.90
13982;DHT22;7065;50.880;5.502;2023-09-19T15:23:20;19.40;99.90
13982;DHT22;7065;50.880;5.502;2023-09-19T15:25:49;19.40;99.90
13982;DHT22;7065;50.880;5.502;2023-09-19T15:28:15;19.40;99.90
13982;DHT22;7065;50.880;5.502;2023-09-19T15:30:40;19.30;99.90
13982;DHT22;7065;50.880;5.502;2023-09-19T15:33:06;19.30;99.90
13982;DHT22;7065;50.880;5.502;2023-09-19T15:35:32;19.30;99.90
13982;DHT22;7065;50.880;5.502;2023-09-19T15:37:58;19.30;99.90
13982;DHT22;7065;50.880;5.502;2023-09-19T15:40:26;19.30;99.90
13982;DHT22;7065;50.880;5.502;2023-09-19T15:42:54;19.30;99.90
13982;DHT22;7065;50.880;5.502;2023-09-19T15:45:20;19.30;99.90
13982;DHT22;7065;50.880;5.502;2023-09-19T15:47:45;19.30;99.90
13982;DHT22;7065;50.880;5.502;2023-09-19T15:50:11;19.20;99.90
13982;DHT22;7065;50.880;5.502;2023-09-19T15:52:41;19.30;99.90
13982;DHT22;7065;50.880;5.502;2023-09-19T15:55:07;19.30;99.90
13982;DHT22;7065;50.880;5.502;2023-09-19T15:57:33;19.30;99.90
13982;DHT22;7065;50.880;5.502;2023-09-19T15:59:59;19.20;99.90
13982;DHT22;7065;50.880;5.502;2023-09-19T16:02:25;19.20;99.90
13982;DHT22;7065;50.880;5.502;2023-09-19T16:04:54;19.10;99.90
13982;DHT22;7065;50.880;5.502;2023-09-19T16:07:19;19.10;99.90
13982;DHT22;7065;50.880;5.502;2023-09-19T16:09:45;19.00;99.90
13982;DHT22;7065;50.880;5.502;2023-09-19T16:12:11;19.00;99.90
13982;DHT22;7065;50.880;5.502;2023-09-19T16:14:39;19.00;99.90
13982;DHT22;7065;50.880;5.502;2023-09-19T16:17:05;18.90;99.90
13982;DHT22;7065;50.880;5.502;2023-09-19T16:19:33;18.90;99.90
13982;DHT22;7065;50.880;5.502;2023-09-19T16:21:59;18.90;99.90
13982;DHT22;7065;50.880;5.502;2023-09-19T16:24:25;18.80;99.90
13982;DHT22;7065;50.880;5.502;2023-09-19T16:26:51;18.80;99.90
13982;DHT22;7065;50.880;5.502;2023-09-19T16:29:18;18.80;99.90
13982;DHT22;7065;50.880;5.502;2023-09-19T16:31:46;18.80;99.90
13982;DHT22;7065;50.880;5.502;2023-09-19T16:34:12;18.70;99.90
13982;DHT22;7065;50.880;5.502;2023-09-19T16:36:39;18.70;99.90
13982;DHT22;7065;50.880;5.502;2023-09-19T16:39:04;18.60;99.90
13982;DHT22;7065;50.880;5.502;2023-09-19T16:41:33;18.60;99.90
13982;DHT22;7065;50.880;5.502;2023-09-19T16:44:00;18.60;99.90